Time;durP1;ratioP1;P1;durP2;ratioP2;P2;SDS_P1;SDS_P2;PMS_P1;PMS_P2;Temp;Humidity;BMP_temperature;BMP_pressure;BME280_temperature;BME280_humidity;BME280_pressure;Samples;Min_cycle;Max_cycle;Signal;HPM_P1;HPM_P2
2022/11/20 00:01:08;;;;;;;1.00;1.00;;;;;;;-0.02;67.28;101491.44;5093497;28;20024;-74
2022/11/20 00:03:35;;;;;;;0.10;0.10;;;;;;;-0.05;66.90;101506.94;5098874;28;20038;-74
2022/11/20 00:06:03;;;;;;;0.20;0.20;;;;;;;-0.10;67.12;101496.38;5095925;28;20024;-74
2022/11/20 00:08:29;;;;;;;0.20;0.20;;;;;;;-0.09;66.92;101494.66;5091955;28;20030;-74
2022/11/20 00:10:55;;;;;;;0.13;0.13;;;;;;;-0.10;67.00;101488.56;5091936;28;20024;-74
2022/11/20 00:13:21;;;;;;;0.10;0.10;;;;;;;-0.11;66.70;101494.59;5092065;28;20661;-75
2022/11/20 00:15:47;;;;;;;0.20;0.20;;;;;;;-0.13;66.63;101491.06;5092296;28;20430;-75
2022/11/20 00:18:14;;;;;;;0.13;0.13;;;;;;;-0.15;66.74;101500.53;5091327;28;20042;-75
2022/11/20 00:20:40;;;;;;;0.20;0.20;;;;;;;-0.18;66.92;101496.09;5078285;28;20034;-75
2022/11/20 00:23:06;;;;;;;0.20;0.20;;;;;;;-0.19;67.00;101504.78;5091418;28;20039;-74
2022/11/20 00:25:35;;;;;;;0.30;0.30;;;;;;;-0.18;67.20;101500.44;5091372;28;20162;-75
2022/11/20 00:28:01;;;;;;;0.20;0.20;;;;;;;-0.20;67.64;101496.88;5091679;28;20028;-75
2022/11/20 00:30:27;;;;;;;0.20;0.20;;;;;;;-0.22;67.08;101493.34;5091101;28;20027;-75
2022/11/20 00:32:56;;;;;;;0.10;0.10;;;;;;;-0.23;66.96;101499.41;5091690;28;20024;-74
2022/11/20 00:35:22;;;;;;;0.10;0.10;;;;;;;-0.25;66.92;101493.22;5091617;28;20032;-75
2022/11/20 00:37:48;;;;;;;0.10;0.10;;;;;;;-0.28;67.09;101498.34;5091430;28;20433;-75
2022/11/20 00:40:14;;;;;;;0.20;0.20;;;;;;;-0.29;66.85;101497.44;5091423;28;20039;-74
2022/11/20 00:42:40;;;;;;;0.20;0.20;;;;;;;-0.30;67.11;101502.59;5091487;28;20107;-75
2022/11/20 00:45:06;;;;;;;0.20;0.20;;;;;;;-0.31;67.57;101493.91;5091489;28;20059;-75
2022/11/20 00:47:33;;;;;;;1.30;1.23;;;;;;;-0.33;67.51;101486.03;5091653;28;20059;-74
2022/11/20 00:49:59;;;;;;;0.10;0.10;;;;;;;-0.30;67.50;101489.59;5100803;28;20062;-74
2022/11/20 00:52:25;;;;;;;0.20;0.20;;;;;;;-0.28;67.34;101493.13;5117829;28;20027;-73
2022/11/20 00:54:51;;;;;;;0.10;0.10;;;;;;;-0.29;66.89;101491.38;5108729;28;20043;-74
2022/11/20 00:57:17;;;;;;;0.20;0.20;;;;;;;-0.33;67.02;101486.03;5096067;28;20036;-75
2022/11/20 00:59:43;;;;;;;0.20;0.20;;;;;;;-0.31;67.62;101480.91;5091821;28;20081;-74
2022/11/20 01:02:09;;;;;;;0.20;0.20;;;;;;;-0.31;67.19;101472.19;5092032;28;20020;-75
2022/11/20 01:04:35;;;;;;;0.28;0.28;;;;;;;-0.31;66.98;101466.97;5090983;28;20028;-75
2022/11/20 01:07:01;;;;;;;0.20;0.20;;;;;;;-0.31;67.20;101469.59;5091706;28;20024;-75
2022/11/20 01:09:27;;;;;;;0.10;0.10;;;;;;;-0.34;66.72;101475.56;5091498;28;20028;-75
2022/11/20 01:11:54;;;;;;;0.20;0.20;;;;;;;-0.35;67.07;101474.69;5091706;28;20134;-75
2022/11/20 01:14:20;;;;;;;0.65;0.65;;;;;;;-0.35;67.00;101473.78;5080579;28;20025;-75
2022/11/20 01:16:49;;;;;;;0.20;0.20;;;;;;;-0.36;66.81;101472.91;5088398;28;20020;-75
2022/11/20 01:19:18;;;;;;;0.20;0.20;;;;;;;-0.36;66.68;101485.94;5091058;28;20048;-75
2022/11/20 01:21:47;;;;;;;0.40;0.40;;;;;;;-0.36;66.77;101483.34;5091287;28;20103;-75
2022/11/20 01:24:17;;;;;;;0.32;0.32;;;;;;;-0.36;66.68;101472.91;5091714;28;20034;-76
2022/11/20 01:26:46;;;;;;;0.10;0.10;;;;;;;-0.34;67.38;101475.56;5091341;28;20495;-76
2022/11/20 01:29:18;;;;;;;0.10;0.10;;;;;;;-0.34;66.78;101476.47;5090871;28;20050;-75
2022/11/20 01:31:44;;;;;;;0.20;0.20;;;;;;;-0.35;67.14;101477.31;5091768;28;20051;-75
2022/11/20 01:34:13;;;;;;;0.13;0.13;;;;;;;-0.37;67.21;101463.34;5091342;28;20066;-75
2022/11/20 01:36:41;;;;;;;0.20;0.20;;;;;;;-0.37;67.13;101471.16;5095515;28;20031;-76
2022/11/20 01:39:12;;;;;;;0.20;0.20;;;;;;;-0.37;66.67;101455.53;5094233;28;20484;-75
2022/11/20 01:47:46;;;;;;;0.10;0.10;;;;;;;-0.42;66.64;101453.63;5069029;28;20387;-75
2022/11/20 01:50:18;;;;;;;0.20;0.20;;;;;;;-0.47;67.47;101449.94;5048576;28;20037;-74
2022/11/20 01:52:49;;;;;;;;;;;;;;;-0.40;66.76;101454.53;5035250;28;20045;-74
2022/11/20 01:55:21;;;;;;;0.10;0.10;;;;;;;-0.51;67.44;101459.38;5049026;28;19919;-73
2022/11/20 01:57:48;;;;;;;0.20;0.20;;;;;;;-0.54;67.65;101462.72;5048662;28;20033;-74
2022/11/20 02:00:17;;;;;;;0.20;0.20;;;;;;;-0.56;66.67;101454.00;5048271;28;20014;-74
2022/11/20 02:02:48;;;;;;;0.20;0.20;;;;;;;-0.55;66.40;101470.50;5048886;28;20025;-75
2022/11/20 02:05:38;;;;;;;0.20;0.20;;;;;;;-0.54;67.01;101472.28;5048561;28;20032;-76
2022/11/20 02:08:06;;;;;;;0.20;0.20;;;;;;;-0.57;66.47;101469.56;5065044;28;20053;-72
2022/11/20 02:10:34;;;;;;;6.40;2.85;;;;;;;-0.60;66.36;101464.25;5074242;28;20028;-72
2022/11/20 02:15:48;;;;;;;0.17;0.17;;;;;;;-0.62;67.19;101484.13;5048297;28;20025;-75
2022/11/20 02:18:17;;;;;;;0.77;0.77;;;;;;;-0.61;67.16;101479.00;5048499;28;20056;-75
2022/11/20 02:20:45;;;;;;;0.40;0.40;;;;;;;-0.60;67.12;101477.25;5047845;28;20102;-74
2022/11/20 02:25:49;;;;;;;0.20;0.20;;;;;;;-0.58;67.16;101468.66;5054313;28;20715;-75
2022/11/20 02:28:17;;;;;;;0.20;0.20;;;;;;;-0.59;67.61;101466.88;5068600;28;20492;-74
2022/11/20 02:30:43;;;;;;;0.20;0.20;;;;;;;-0.62;67.43;101464.19;5068105;28;20033;-74
2022/11/20 02:33:10;;;;;;;0.20;0.20;;;;;;;-0.60;67.46;101472.06;5069062;28;20035;-74
2022/11/20 02:38:13;;;;;;;0.20;0.20;;;;;;;-0.64;66.85;101462.38;5068955;28;20399;-74
2022/11/20 02:40:39;;;;;;;2.05;1.95;;;;;;;-0.67;66.56;101461.41;5067720;28;20029;-75
2022/11/20 02:43:06;;;;;;;1.10;1.10;;;;;;;-0.70;67.08;101453.53;5068648;28;20029;-74
2022/11/20 02:45:32;;;;;;;0.10;0.10;;;;;;;-0.65;67.25;101456.25;5068778;28;20031;-74
2022/11/20 02:47:58;;;;;;;0.15;0.15;;;;;;;-0.67;67.53;101453.63;5068370;28;20388;-74
2022/11/20 02:50:24;;;;;;;0.20;0.20;;;;;;;-0.69;67.40;101449.19;5068089;28;20033;-74
2022/11/20 02:52:50;;;;;;;0.20;0.20;;;;;;;-0.71;67.67;101446.53;5068651;28;20078;-75
2022/11/20 02:55:16;;;;;;;0.30;0.30;;;;;;;-0.68;67.08;101441.44;5068412;28;20036;-75
2022/11/20 02:57:42;;;;;;;0.20;0.20;;;;;;;-0.67;67.81;101440.59;5067789;28;20047;-75
2022/11/20 03:00:09;;;;;;;2.63;2.45;;;;;;;-0.69;67.35;101434.44;5062510;28;20091;-75
2022/11/20 03:02:35;;;;;;;0.15;0.15;;;;;;;-0.69;67.15;101438.78;5060438;28;20052;-75
2022/11/20 03:05:02;;;;;;;0.30;0.30;;;;;;;-0.70;67.15;101432.69;5068212;28;20037;-75
2022/11/20 03:07:31;;;;;;;5.68;2.05;;;;;;;-0.72;67.23;101436.94;5068190;28;20070;-75
2022/11/20 03:09:57;;;;;;;1.38;1.38;;;;;;;-0.68;67.52;101435.34;5059307;28;20021;-75
2022/11/20 03:12:23;;;;;;;0.20;0.20;;;;;;;-0.66;67.70;101426.75;5077174;28;20043;-74
2022/11/20 03:14:49;;;;;;;0.20;0.20;;;;;;;-0.64;68.01;101418.13;5070127;28;20515;-74
2022/11/20 03:17:16;;;;;;;0.30;0.30;;;;;;;-0.65;67.34;101414.63;5068274;28;20103;-75
2022/11/20 03:19:42;;;;;;;0.20;0.20;;;;;;;-0.64;67.78;101412.91;5055181;28;20084;-74
2022/11/20 03:22:08;;;;;;;0.13;0.13;;;;;;;-0.69;67.24;101408.41;5067492;28;20064;-75
2022/11/20 03:24:35;;;;;;;0.20;0.20;;;;;;;-0.71;67.08;101412.72;5075783;28;20029;-73
2022/11/20 03:27:01;;;;;;;0.20;0.20;;;;;;;-0.73;67.31;101406.56;5093831;28;20021;-73
2022/11/20 03:29:27;;;;;;;6.55;1.65;;;;;;;-0.75;67.61;101396.91;5088992;28;20078;-74
2022/11/20 03:31:53;;;;;;;0.20;0.20;;;;;;;-0.75;67.12;101387.38;5080488;28;20180;-73
2022/11/20 03:34:19;;;;;;;0.17;0.17;;;;;;;-0.77;67.46;101389.06;5070956;28;20031;-74
2022/11/20 03:36:45;;;;;;;0.20;0.20;;;;;;;-0.79;67.70;101389.84;5068669;28;20025;-75
2022/11/20 03:39:11;;;;;;;0.20;0.20;;;;;;;-0.82;67.72;101390.63;5067416;28;20045;-75
2022/11/20 03:41:40;;;;;;;0.20;0.20;;;;;;;-0.82;67.07;101380.22;5069831;28;20025;-75
2022/11/20 03:44:09;;;;;;;0.52;0.52;;;;;;;-0.83;67.48;101388.84;5068352;28;20436;-75
2022/11/20 03:46:35;;;;;;;0.68;0.68;;;;;;;-0.85;67.78;101391.41;5068163;28;20023;-77
2022/11/20 03:49:02;;;;;;;0.20;0.20;;;;;;;-0.84;67.60;101384.47;5057205;28;20467;-76
2022/11/20 03:51:30;;;;;;;0.10;0.10;;;;;;;-0.85;67.33;101385.31;5054555;28;20397;-76
2022/11/20 03:53:59;;;;;;;0.10;0.10;;;;;;;-0.85;67.27;101380.09;5054441;28;20060;-77
2022/11/20 03:56:29;;;;;;;0.20;0.20;;;;;;;-0.84;67.56;101374.06;5054690;28;20021;-75
2022/11/20 03:58:55;;;;;;;0.20;0.20;;;;;;;-0.85;67.61;101367.09;5054187;28;20515;-75
2022/11/20 04:01:26;;;;;;;0.20;0.20;;;;;;;-0.83;67.87;101368.03;5054308;28;20021;-75
2022/11/20 04:03:54;;;;;;;0.20;0.20;;;;;;;-0.84;67.72;101368.88;5054582;28;20036;-76
2022/11/20 04:06:24;;;;;;;0.20;0.20;;;;;;;-0.86;67.36;101373.13;5050537;28;20025;-76
2022/11/20 04:08:51;;;;;;;0.10;0.10;;;;;;;-0.87;67.72;101384.38;5043961;28;20116;-76
2022/11/20 04:11:21;;;;;;;0.20;0.20;;;;;;;-0.85;67.39;101377.50;5053882;28;20036;-76
2022/11/20 04:13:50;;;;;;;0.20;0.20;;;;;;;-0.84;67.71;101374.94;5054065;28;20547;-75
2022/11/20 04:16:17;;;;;;;0.20;0.20;;;;;;;-0.82;67.33;101369.81;5053652;28;20061;-76
2022/11/20 04:18:43;;;;;;;0.20;0.20;;;;;;;-0.82;67.88;101364.63;5053387;28;20234;-76
2022/11/20 04:21:10;;;;;;;0.20;0.20;;;;;;;-0.82;68.18;101355.06;5054202;28;20036;-76
2022/11/20 04:23:37;;;;;;;1.35;1.27;;;;;;;-0.81;67.43;101350.75;5053666;28;20527;-75
2022/11/20 04:26:06;;;;;;;7.47;2.05;;;;;;;-0.81;67.60;101340.34;5053730;28;20028;-76
2022/11/20 04:28:32;;;;;;;0.35;0.35;;;;;;;-0.84;67.48;101335.91;5053913;28;20028;-74
2022/11/20 04:31:15;;;;;;;0.20;0.20;;;;;;;-0.80;68.12;101336.91;5054262;28;20085;-75
2022/11/20 04:33:41;;;;;;;0.50;0.50;;;;;;;-0.87;67.98;101332.34;5053460;28;20508;-76
2022/11/20 04:36:12;;;;;;;0.63;0.60;;;;;;;-0.89;67.54;101340.06;5053573;28;20029;-75
2022/11/20 04:38:39;;;;;;;0.20;0.20;;;;;;;-0.94;67.78;101351.16;5052920;28;20479;-75
2022/11/20 04:41:09;;;;;;;0.20;0.20;;;;;;;-0.94;68.13;101356.38;5056573;28;20385;-75
2022/11/20 04:43:35;;;;;;;0.30;0.30;;;;;;;-0.98;68.18;101347.56;5076650;28;20076;-73
2022/11/20 04:46:02;;;;;;;0.30;0.30;;;;;;;-0.98;67.74;101338.03;5078761;28;20097;-74
2022/11/20 04:48:29;;;;;;;0.20;0.20;;;;;;;-0.97;68.28;101328.53;5049053;28;20084;-74
2022/11/20 04:50:56;;;;;;;0.68;0.68;;;;;;;-0.98;67.71;101332.84;5049797;28;20037;-75
2022/11/20 04:53:22;;;;;;;0.50;0.50;;;;;;;-1.00;67.96;101334.53;5055732;28;20021;-75
2022/11/20 04:55:49;;;;;;;0.20;0.20;;;;;;;-0.99;67.85;101344.06;5056442;28;20094;-75
2022/11/20 04:58:16;;;;;;;0.20;0.20;;;;;;;-0.98;67.55;101338.03;5057196;28;20048;-75
2022/11/20 05:00:42;;;;;;;1.60;1.50;;;;;;;-0.96;67.94;101334.63;5056094;28;20087;-75
2022/11/20 05:03:08;;;;;;;0.20;0.20;;;;;;;-0.96;67.87;101330.28;5067427;28;20041;-74
2022/11/20 05:05:35;;;;;;;1.17;1.15;;;;;;;-0.95;67.57;101324.25;5067918;28;20033;-76
2022/11/20 05:08:01;;;;;;;0.10;0.10;;;;;;;-0.93;67.24;101339.94;5067486;28;20017;-75
2022/11/20 05:10:27;;;;;;;0.20;0.20;;;;;;;-0.93;67.83;101343.41;5068270;28;20492;-75
2022/11/20 05:12:53;;;;;;;0.20;0.20;;;;;;;-0.91;67.22;101343.47;5068004;28;20029;-74
2022/11/20 05:15:20;;;;;;;0.20;0.20;;;;;;;-0.91;67.45;101333.97;5067960;28;20032;-74
2022/11/20 05:17:48;;;;;;;0.20;0.20;;;;;;;-0.88;67.75;101333.19;5068168;28;20404;-74
2022/11/20 05:20:15;;;;;;;2.72;1.65;;;;;;;-0.90;67.31;101329.63;5067197;28;20033;-74
2022/11/20 05:22:41;;;;;;;0.10;0.10;;;;;;;-0.88;67.17;101327.97;5068012;28;20496;-75
2022/11/20 05:25:07;;;;;;;1.00;1.00;;;;;;;-0.88;67.63;101333.19;5066756;28;20040;-73
2022/11/20 05:27:33;;;;;;;0.28;0.28;;;;;;;-0.88;67.12;101340.97;5065477;28;20382;-74
2022/11/20 05:29:59;;;;;;;0.10;0.10;;;;;;;-0.88;67.14;101338.38;5058897;28;20025;-76
2022/11/20 05:32:25;;;;;;;1.27;1.27;;;;;;;-0.87;67.73;101340.16;5054500;28;20105;-76
2022/11/20 05:34:52;;;;;;;0.30;0.30;;;;;;;-0.85;67.68;101328.97;5054387;28;20454;-76
2022/11/20 05:37:18;;;;;;;0.30;0.30;;;;;;;-0.83;67.75;101337.69;5053799;28;20028;-76
2022/11/20 05:39:44;;;;;;;0.10;0.10;;;;;;;-0.80;67.65;101352.53;5053392;28;20035;-75
2022/11/20 05:42:43;;;;;;;0.20;0.20;;;;;;;-0.80;67.82;101342.13;5052908;28;20488;-75
2022/11/20 05:44:59;;;;;;;0.20;0.20;;;;;;;-0.78;67.88;101337.84;5053495;28;20032;-75
2022/11/20 05:47:26;;;;;;;0.20;0.20;;;;;;;-0.79;67.89;101338.69;5060474;28;20028;-75
2022/11/20 05:49:52;;;;;;;0.20;0.20;;;;;;;-0.78;67.92;101337.84;5053116;28;20029;-74
2022/11/20 05:52:18;;;;;;;0.88;0.88;;;;;;;-0.75;68.14;101334.47;5052441;28;20431;-74
2022/11/20 05:54:44;;;;;;;0.57;0.57;;;;;;;-0.71;68.19;101337.25;5052715;28;20536;-75
2022/11/20 05:57:10;;;;;;;0.68;0.68;;;;;;;-0.69;67.81;101332.94;5053771;28;20037;-75
2022/11/20 05:59:36;;;;;;;0.20;0.20;;;;;;;-0.68;67.69;101329.53;5058910;28;20033;-75
2022/11/20 06:02:02;;;;;;;0.10;0.10;;;;;;;-0.62;67.52;101322.75;5062940;28;20051;-75
2022/11/20 06:04:28;;;;;;;0.68;0.68;;;;;;;-0.57;68.23;101329.03;5069670;28;20051;-74
2022/11/20 06:06:54;;;;;;;0.20;0.20;;;;;;;-0.54;68.02;101321.28;5066292;28;20033;-74
2022/11/20 06:09:20;;;;;;;0.20;0.20;;;;;;;-0.53;68.00;101333.47;5055212;28;20029;-74
2022/11/20 06:11:46;;;;;;;0.88;0.88;;;;;;;-0.55;68.07;101323.03;5053241;28;20036;-74
2022/11/20 06:14:13;;;;;;;0.10;0.10;;;;;;;-0.52;67.74;101317.91;5052992;28;20037;-74
2022/11/20 06:16:39;;;;;;;0.20;0.20;;;;;;;-0.52;68.17;101314.44;5053190;28;20481;-74
2022/11/20 06:19:05;;;;;;;2.40;1.08;;;;;;;-0.52;68.16;101301.41;5052404;28;20442;-75
2022/11/20 06:21:31;;;;;;;0.40;0.40;;;;;;;-0.54;67.57;101297.88;5051877;28;20083;-74
2022/11/20 06:23:57;;;;;;;3.05;2.75;;;;;;;-0.51;67.58;101301.47;5052116;28;20392;-75
2022/11/20 06:26:25;;;;;;;2.67;2.40;;;;;;;-0.50;67.98;101291.91;5051848;28;20028;-74
2022/11/20 06:28:52;;;;;;;0.20;0.20;;;;;;;-0.50;68.39;101290.22;5051482;28;20028;-75
2022/11/20 06:31:21;;;;;;;0.20;0.20;;;;;;;-0.49;67.93;101293.69;5051568;28;20040;-74
2022/11/20 06:33:48;;;;;;;0.32;0.32;;;;;;;-0.47;68.26;101302.44;5051493;28;20029;-75
2022/11/20 06:36:16;;;;;;;1.75;0.73;;;;;;;-0.45;67.88;101297.28;5051358;28;20029;-76
2022/11/20 06:38:42;;;;;;;0.20;0.20;;;;;;;-0.43;67.77;101285.22;5050906;28;20029;-76
2022/11/20 06:41:13;;;;;;;0.20;0.20;;;;;;;-0.41;67.91;101289.63;5051531;28;20400;-75
2022/11/20 06:43:39;;;;;;;0.10;0.10;;;;;;;-0.42;67.33;101292.19;5051354;28;20040;-74
2022/11/20 06:46:06;;;;;;;0.20;0.20;;;;;;;-0.41;67.88;101284.44;5051515;28;20094;-75
2022/11/20 06:48:32;;;;;;;0.10;0.10;;;;;;;-0.40;67.60;101282.69;5050839;28;20378;-75
2022/11/20 06:50:59;;;;;;;0.20;0.20;;;;;;;-0.36;67.77;101288.06;5050904;28;20029;-75
2022/11/20 06:53:25;;;;;;;0.10;0.10;;;;;;;-0.33;67.82;101285.53;5051633;28;20061;-76
2022/11/20 06:55:51;;;;;;;0.10;0.10;;;;;;;-0.30;68.34;101283.88;5051165;28;20029;-74
2022/11/20 06:58:18;;;;;;;0.20;0.20;;;;;;;-0.27;67.91;101278.78;5050392;28;20033;-76
2022/11/20 07:00:44;;;;;;;0.10;0.10;;;;;;;-0.25;68.34;101269.28;5050448;28;20033;-76
2022/11/20 07:03:11;;;;;;;0.40;0.40;;;;;;;-0.21;68.29;101268.56;5050641;28;20112;-75
2022/11/20 07:05:38;;;;;;;0.20;0.20;;;;;;;-0.18;68.39;101268.63;5051011;28;20120;-75
2022/11/20 07:08:05;;;;;;;0.20;0.20;;;;;;;-0.12;68.36;101261.00;5051051;28;20025;-75
2022/11/20 07:10:32;;;;;;;0.20;0.20;;;;;;;-0.07;68.11;101267.25;5051239;28;20032;-76
2022/11/20 07:12:58;;;;;;;0.13;0.13;;;;;;;-0.01;68.37;101274.38;5051001;28;20029;-75
2022/11/20 07:15:25;;;;;;;0.20;0.20;;;;;;;0.06;68.38;101276.28;5051627;28;20507;-76
2022/11/20 07:17:51;;;;;;;0.80;0.75;;;;;;;0.11;68.49;101281.66;5061388;28;20044;-74
2022/11/20 07:20:17;;;;;;;0.20;0.20;;;;;;;0.17;68.62;101273.16;5075669;28;20037;-73
2022/11/20 07:22:43;;;;;;;0.20;0.20;;;;;;;0.22;68.54;101277.63;5069274;28;20056;-75
2022/11/20 07:25:10;;;;;;;0.20;0.20;;;;;;;0.24;68.33;101281.19;5055813;28;20067;-75
2022/11/20 07:27:36;;;;;;;0.17;0.17;;;;;;;0.29;68.29;101278.72;5055194;28;20032;-76
2022/11/20 07:30:04;;;;;;;0.10;0.10;;;;;;;0.31;67.64;101277.94;5054967;28;20594;-76
2022/11/20 07:32:30;;;;;;;0.13;0.13;;;;;;;0.36;67.80;101271.94;5054641;28;20033;-76
2022/11/20 07:34:56;;;;;;;0.50;0.50;;;;;;;0.41;67.88;101278.19;5055004;28;20049;-75
2022/11/20 07:37:23;;;;;;;0.20;0.20;;;;;;;0.44;67.88;101279.16;5054658;28;20036;-75
2022/11/20 07:39:49;;;;;;;0.20;0.20;;;;;;;0.50;67.66;101273.25;5054049;28;20028;-75
2022/11/20 07:42:15;;;;;;;0.10;0.10;;;;;;;0.55;67.97;101271.63;5040703;28;20029;-76
2022/11/20 07:44:41;;;;;;;0.77;0.77;;;;;;;0.64;67.98;101269.28;5054486;28;20028;-75
2022/11/20 07:47:07;;;;;;;0.77;0.77;;;;;;;0.71;67.56;101277.25;5054570;28;20075;-76
2022/11/20 07:49:33;;;;;;;0.15;0.15;;;;;;;0.78;68.24;101274.00;5053841;28;20569;-76
2022/11/20 07:51:59;;;;;;;0.17;0.17;;;;;;;0.86;68.03;101272.47;5054396;28;20071;-76
2022/11/20 07:54:25;;;;;;;0.20;0.20;;;;;;;0.92;67.70;101277.88;5054654;28;20020;-74
2022/11/20 07:56:51;;;;;;;0.20;0.20;;;;;;;0.98;67.94;101278.88;5055101;28;20025;-75
2022/11/20 07:59:17;;;;;;;0.10;0.10;;;;;;;0.99;67.22;101281.50;5053582;28;20043;-75
2022/11/20 08:01:43;;;;;;;0.20;0.20;;;;;;;1.00;67.69;101283.28;5053939;28;20499;-74
2022/11/20 08:04:10;;;;;;;0.20;0.20;;;;;;;1.03;67.41;101287.69;5054590;28;20029;-75
2022/11/20 08:06:36;;;;;;;0.35;0.35;;;;;;;1.06;67.40;101285.16;5054338;28;20393;-75
2022/11/20 08:09:03;;;;;;;0.20;0.20;;;;;;;1.08;67.52;101265.19;5053577;28;20029;-75
2022/11/20 08:14:15;;;;;;;0.20;0.20;;;;;;;1.11;67.58;101274.00;5053251;28;20049;-74
2022/11/20 08:16:45;;;;;;;0.15;0.15;;;;;;;1.17;67.62;101282.81;5053474;28;20025;-74
2022/11/20 08:19:12;;;;;;;1.10;0.93;;;;;;;1.23;67.58;101283.84;5053096;28;20116;-75
2022/11/20 08:21:39;;;;;;;0.10;0.10;;;;;;;1.32;67.88;101292.78;5053638;28;20299;-75
2022/11/20 08:24:06;;;;;;;0.10;0.10;;;;;;;1.36;67.62;101286.78;5053550;28;20400;-74
2022/11/20 08:26:32;;;;;;;0.30;0.30;;;;;;;1.45;67.91;101281.78;5053251;28;20025;-77
2022/11/20 08:28:59;;;;;;;1.45;1.35;;;;;;;1.52;67.63;101275.88;5053330;28;20029;-75
2022/11/20 08:31:26;;;;;;;0.20;0.20;;;;;;;1.56;67.55;101275.09;5053511;28;20029;-75
2022/11/20 08:33:53;;;;;;;0.20;0.20;;;;;;;1.58;67.57;101270.81;5053391;28;20029;-75
2022/11/20 08:36:21;;;;;;;0.20;0.20;;;;;;;1.66;67.52;101267.47;5068967;28;20028;-73
2022/11/20 08:38:48;;;;;;;0.10;0.10;;;;;;;1.70;67.31;101261.50;5078746;28;20020;-73
2022/11/20 08:41:32;;;;;;;0.20;0.20;;;;;;;1.76;67.54;101254.66;5063913;28;20048;-75
2022/11/20 08:44:02;;;;;;;0.17;0.17;;;;;;;1.85;67.41;101264.44;5055957;28;20021;-75
2022/11/20 08:46:41;;;;;;;0.40;0.40;;;;;;;1.90;67.28;101259.31;5054478;28;20029;-75
2022/11/20 08:49:10;;;;;;;0.30;0.30;;;;;;;1.96;67.52;101255.94;5052897;28;20075;-75
2022/11/20 08:51:37;;;;;;;0.10;0.10;;;;;;;1.99;67.10;101250.81;5053309;28;20024;-75
2022/11/20 08:54:04;;;;;;;0.22;0.22;;;;;;;2.00;67.05;101242.13;5053177;28;20036;-75
2022/11/20 08:56:30;;;;;;;2.35;2.15;;;;;;;2.03;66.95;101253.53;5053168;28;20021;-75
2022/11/20 08:58:59;;;;;;;0.10;0.10;;;;;;;2.07;66.98;101246.63;5052455;28;20386;-75
2022/11/20 09:01:25;;;;;;;0.20;0.20;;;;;;;2.05;66.45;101245.72;5052924;28;20020;-75
2022/11/20 09:03:51;;;;;;;0.20;0.20;;;;;;;2.12;66.75;101251.94;5053071;28;20485;-77
2022/11/20 09:06:18;;;;;;;0.15;0.15;;;;;;;2.13;66.77;101244.16;5052953;28;20028;-76
2022/11/20 09:08:44;;;;;;;0.10;0.10;;;;;;;2.19;66.51;101239.03;5052265;28;20039;-75
2022/11/20 09:11:11;;;;;;;0.65;0.65;;;;;;;2.26;66.83;101248.75;5052546;28;20029;-74
2022/11/20 09:13:37;;;;;;;0.50;0.50;;;;;;;2.33;66.71;101246.28;5052684;28;20033;-75
2022/11/20 09:16:06;;;;;;;0.17;0.17;;;;;;;2.35;66.72;101239.34;5052859;28;20104;-75
2022/11/20 09:18:33;;;;;;;0.47;0.47;;;;;;;2.40;66.86;101232.47;5046180;28;20124;-74
2022/11/20 09:21:01;;;;;;;0.10;0.10;;;;;;;2.44;66.57;101229.06;5044787;28;20407;-75
2022/11/20 09:23:31;;;;;;;1.77;1.30;;;;;;;2.44;66.27;101221.22;5052955;28;20036;-75
2022/11/20 09:25:59;;;;;;;0.20;0.20;;;;;;;2.48;66.24;101212.59;5052584;28;20523;-75
2022/11/20 09:28:26;;;;;;;0.10;0.10;;;;;;;2.49;66.59;101201.25;5052358;28;20074;-75
2022/11/20 09:30:52;;;;;;;0.30;0.30;;;;;;;2.58;66.77;101204.06;5051587;28;20492;-75
2022/11/20 09:33:18;;;;;;;0.20;0.20;;;;;;;2.65;66.64;101206.78;5052128;28;20033;-75
2022/11/20 09:35:45;;;;;;;0.80;0.80;;;;;;;2.71;67.02;101196.44;5052367;28;20028;-76
2022/11/20 09:38:11;;;;;;;1.13;1.02;;;;;;;2.79;66.76;101196.56;5052575;28;20401;-75
2022/11/20 09:40:45;;;;;;;0.17;0.17;;;;;;;2.87;66.54;101195.84;5050626;28;20154;-75
2022/11/20 09:49:05;;;;;;;1.45;1.38;;;;;;;3.09;66.55;101177.91;5068690;28;20382;-75
2022/11/20 09:52:11;;;;;;;0.20;0.20;;;;;;;3.12;65.71;101177.94;5068488;28;20039;-75
2022/11/20 09:54:40;;;;;;;0.40;0.40;;;;;;;3.09;66.12;101180.53;5087037;28;20080;-74
2022/11/20 09:57:14;;;;;;;0.20;0.20;;;;;;;3.14;65.78;101177.94;5094324;28;20068;-74
2022/11/20 09:59:49;;;;;;;0.10;0.10;;;;;;;3.16;66.07;101164.03;5070556;28;20029;-76
2022/11/20 10:02:37;;;;;;;0.20;0.20;;;;;;;3.22;66.55;101158.88;5068684;28;20021;-75
2022/11/20 10:05:15;;;;;;;0.30;0.30;;;;;;;3.31;66.14;101162.50;5068318;28;20036;-76
2022/11/20 10:08:05;;;;;;;0.28;0.28;;;;;;;3.34;66.25;101163.44;5068230;28;20108;-76
2022/11/20 10:10:39;;;;;;;0.73;0.73;;;;;;;3.39;66.14;101155.66;5067902;28;20404;-75
2022/11/20 10:13:31;;;;;;;0.10;0.10;;;;;;;3.44;66.13;101138.25;5068196;28;20024;-76
2022/11/20 10:24:52;;;;;;;0.10;0.10;;;;;;;3.83;66.50;101108.19;5103586;27;1181356;-75
2022/11/20 10:27:57;;;;;;;0.10;0.10;;;;;;;3.87;66.73;101107.34;5117622;28;20277;-77
2022/11/20 10:30:25;;;;;;;0.30;0.30;;;;;;;3.85;66.54;101097.72;5108488;28;20042;-75
2022/11/20 10:33:15;;;;;;;0.30;0.30;;;;;;;3.89;66.19;101103.00;5109901;28;20055;-75
2022/11/20 10:35:49;;;;;;;0.20;0.20;;;;;;;3.84;66.54;101094.22;5108955;28;20019;-74
2022/11/20 10:38:23;;;;;;;0.10;0.10;;;;;;;3.84;66.58;101077.63;5108937;28;20020;-76
2022/11/20 10:41:24;;;;;;;0.10;0.10;;;;;;;3.86;66.78;101079.41;5108334;28;20035;-76
2022/11/20 10:43:40;;;;;;;0.30;0.30;;;;;;;3.88;66.97;101067.19;5108685;28;20034;-75
2022/11/20 10:46:19;;;;;;;0.10;0.10;;;;;;;3.93;66.54;101059.38;5108596;28;20069;-75
2022/11/20 10:48:47;;;;;;;0.10;0.10;;;;;;;3.91;66.73;101054.97;5108308;28;20039;-75
2022/11/20 10:51:30;;;;;;;3.10;1.40;;;;;;;3.96;66.95;101058.53;5108873;28;20098;-75
2022/11/20 10:54:19;;;;;;;0.17;0.17;;;;;;;3.94;66.82;101047.13;5108623;28;20020;-76
2022/11/20 10:56:50;;;;;;;0.22;0.22;;;;;;;4.01;66.80;101048.97;5097231;28;20035;-76
2022/11/20 10:59:52;;;;;;;0.80;0.80;;;;;;;4.08;66.90;101040.28;5107818;28;20051;-74
2022/11/20 11:02:22;;;;;;;0.45;0.45;;;;;;;4.07;66.44;101033.28;5108470;28;20403;-76
2022/11/20 11:04:50;;;;;;;0.20;0.20;;;;;;;4.09;67.13;101030.66;5108373;28;20019;-75
2022/11/20 11:07:30;;;;;;;1.45;1.35;;;;;;;4.06;66.81;101031.53;5108860;28;20038;-76
2022/11/20 11:09:57;;;;;;;0.10;0.10;;;;;;;4.11;67.42;101036.81;5108116;28;20024;-76
2022/11/20 11:12:27;;;;;;;0.65;0.65;;;;;;;4.14;67.74;101035.13;5122291;28;20020;-74
2022/11/20 11:14:55;;;;;;;1.10;1.10;;;;;;;4.14;67.42;101027.25;5130816;28;20024;-75
2022/11/20 11:20:00;;;;;;;0.10;0.10;;;;;;;4.24;67.97;101016.81;5135966;27;20124;-79
2022/11/20 11:22:31;;;;;;;0.20;0.20;;;;;;;4.28;67.52;101023.88;5132553;28;20035;-79
2022/11/20 11:24:58;;;;;;;0.55;0.55;;;;;;;4.25;67.90;101009.00;5115046;28;20420;-80
2022/11/20 11:27:24;;;;;;;1.73;1.63;;;;;;;4.25;67.86;100998.50;5094548;28;20027;-80
2022/11/20 11:30:01;;;;;;;0.20;0.20;;;;;;;4.32;68.18;100983.69;5112680;27;20024;-80
2022/11/20 11:32:27;;;;;;;0.35;0.35;;;;;;;4.35;68.01;100981.09;5118492;27;20076;-80
2022/11/20 11:35:02;;;;;;;0.15;0.15;;;;;;;4.42;68.08;100975.00;5133898;27;20019;-80
2022/11/20 11:37:35;;;;;;;1.83;1.00;;;;;;;4.44;68.14;100968.03;5136924;28;20015;-79
2022/11/20 11:40:04;;;;;;;0.30;0.30;;;;;;;4.42;69.02;100959.25;5147013;27;20027;-80
2022/11/20 11:42:31;;;;;;;0.10;0.10;;;;;;;4.47;68.77;100957.53;5144185;27;20503;-79
2022/11/20 11:45:06;;;;;;;1.10;1.10;;;;;;;4.48;69.13;100942.69;5130081;27;20028;-80
2022/11/20 11:55:40;;;;;;;0.25;0.25;;;;;;;4.70;69.37;100912.22;5069165;28;20390;-76
2022/11/20 12:00:56;;;;;;;0.40;0.40;;;;;;;4.81;69.00;100889.53;5068584;28;20459;-75
2022/11/20 12:03:34;;;;;;;4.22;3.17;;;;;;;4.85;68.79;100870.28;5043353;28;20078;-75
2022/11/20 12:06:21;;;;;;;2.38;1.90;;;;;;;4.86;68.56;100871.19;5068747;28;20563;-76
2022/11/20 12:09:01;;;;;;;0.25;0.25;;;;;;;4.84;68.85;100865.03;5068730;28;20024;-76
2022/11/20 12:11:38;;;;;;;0.55;0.22;;;;;;;4.80;68.67;100869.38;5068914;28;20394;-76
2022/11/20 12:16:41;;;;;;;1.05;1.05;;;;;;;4.81;68.71;100878.13;5109513;27;20546;-76
2022/11/20 12:19:13;;;;;;;1.10;1.10;;;;;;;4.83;68.75;100886.91;5109147;28;20063;-76
2022/11/20 12:30:11;;;;;;;0.30;0.30;;;;;;;4.89;68.68;100859.81;5113139;27;1183837;-76
2022/11/20 12:33:04;;;;;;;0.20;0.20;;;;;;;4.89;68.94;100860.66;5149705;27;20360;-77